TimeCDT,TemperatureF,Dew PointF,Humidity,Sea Level PressureIn,VisibilityMPH,Wind Direction,Wind SpeedMPH,Gust SpeedMPH,PrecipitationIn,Events,Conditions,WindDirDegrees,DateUTC
12:53 AM,62.1,54.0,75,29.80,10.0,SSE,12.7,-,N/A,,Clear,160,2013-09-23 05:53:00
1:53 AM,64.0,53.1,67,29.80,10.0,South,15.0,27.6,N/A,,Clear,170,2013-09-23 06:53:00
2:53 AM,63.0,53.1,70,29.79,10.0,SSE,17.3,25.3,N/A,,Clear,160,2013-09-23 07:53:00
3:53 AM,62.1,52.0,70,29.79,10.0,South,18.4,25.3,N/A,,Clear,170,2013-09-23 08:53:00
4:53 AM,60.1,51.1,72,29.81,10.0,South,16.1,-,N/A,,Clear,170,2013-09-23 09:53:00
5:53 AM,59.0,50.0,72,29.80,10.0,SSE,15.0,21.9,N/A,,Clear,150,2013-09-23 10:53:00
6:53 AM,57.9,50.0,75,29.82,10.0,SSE,15.0,-,N/A,,Clear,150,2013-09-23 11:53:00
7:53 AM,57.0,48.9,74,29.83,10.0,SSE,16.1,-,N/A,,Clear,150,2013-09-23 12:53:00
8:53 AM,59.0,50.0,72,29.83,10.0,SSE,18.4,26.5,N/A,,Clear,150,2013-09-23 13:53:00
9:53 AM,62.1,50.0,65,29.83,10.0,SSE,20.7,29.9,N/A,,Clear,150,2013-09-23 14:53:00
10:53 AM,64.9,50.0,58,29.82,-9999.0,SSE,21.9,32.2,N/A,,Clear,160,2013-09-23 15:53:00
11:53 AM,69.1,50.0,51,29.82,10.0,SSE,20.7,33.4,N/A,,Clear,160,2013-09-23 16:53:00
12:53 PM,71.1,51.1,49,29.82,10.0,SSE,23.0,29.9,N/A,,Clear,160,2013-09-23 17:53:00
1:53 PM,72.0,51.1,48,29.81,10.0,SE,19.6,28.8,N/A,,Clear,140,2013-09-23 18:53:00
2:53 PM,73.0,50.0,44,29.79,10.0,SSE,24.2,31.1,N/A,,Clear,160,2013-09-23 19:53:00
3:53 PM,73.0,50.0,44,29.79,10.0,SSE,20.7,26.5,N/A,,Clear,160,2013-09-23 20:53:00
4:53 PM,72.0,51.1,48,29.80,10.0,SSE,20.7,26.5,N/A,,Clear,150,2013-09-23 21:53:00
5:53 PM,72.0,51.1,48,29.81,10.0,SSE,16.1,26.5,N/A,,Clear,150,2013-09-23 22:53:00
6:53 PM,69.1,51.1,53,29.83,10.0,SE,11.5,-,N/A,,Clear,140,2013-09-23 23:53:00
7:53 PM,64.9,52.0,63,29.84,10.0,SE,11.5,-,N/A,,Clear,130,2013-09-24 00:53:00
8:53 PM,63.0,51.1,65,29.86,10.0,SE,12.7,-,N/A,,Clear,140,2013-09-24 01:53:00
9:53 PM,61.0,51.1,70,29.87,10.0,SE,13.8,-,N/A,,Clear,130,2013-09-24 02:53:00
10:53 PM,60.1,51.1,72,29.88,10.0,SE,15.0,-,N/A,,Clear,140,2013-09-24 03:53:00
11:53 PM,59.0,50.0,72,29.89,10.0,SE,11.5,-,N/A,,Clear,140,2013-09-24 04:53:00